^^
Meteo Knjazevac Station Historical Data
Daily Summary for January 2, 2021 Units:  Metric    English   Both
Daily Weekly Monthly Yearly Custom
  High: Low: Average:
Temperature: 18.6 °C 14.8 °C 16.3 °C
Dew Point: 15.3 °C 13.2 °C 14.2 °C
Humidity: 91% 80% 88%
Wind Speed: 9.7km/h 0km/h 2.4km/h
Wind Gust: 11.3km/h - -
Wind- - SW
Pressure: 1014.1 hPa 1011.7 hPa -
Precipitation: 0 mm    
Historical Graphs
 
 
Tabular Data for January 2, 2021
Time Temperature Dew Point Pressure Wind Wind Speed Wind Gust Humidity Rainfall Rate (Hourly) solar Conditions
00:00 18.6 °C 15.1 °C 1014.1 hPa South 3.2 km/h 6.4 km/h 80% 0 mm 0 W/m2
00:10 18.4 °C 15.1 °C 1014.1 hPa Calm   4.8 km/h 81% 0 mm 0 W/m2
00:20 18.3 °C 15.3 °C 1013.8 hPa Calm   3.2 km/h 83% 0 mm 0 W/m2
00:30 18.1 °C 15.3 °C 1013.8 hPa NW 3.2 km/h 9.7 km/h 84% 0 mm 0 W/m2
00:40 18.1 °C 15.2 °C 1013.4 hPa NNW 1.6 km/h 9.7 km/h 83% 0 mm 0 W/m2
00:50 18.1 °C 15.2 °C 1013.4 hPa WNW 3.2 km/h 9.7 km/h 83% 0 mm 0 W/m2
01:00 18 °C 15.1 °C 1013.1 hPa WNW 1.6 km/h 8 km/h 83% 0 mm 0 W/m2
01:10 17.7 °C 14.9 °C 1012.8 hPa South 1.6 km/h 4.8 km/h 84% 0 mm 0 W/m2
01:20 17.6 °C 14.9 °C 1012.8 hPa Calm   3.2 km/h 84% 0 mm 0 W/m2
01:30 17.5 °C 14.9 °C 1012.4 hPa WNW 1.6 km/h 4.8 km/h 85% 0 mm 0 W/m2
01:40 17.4 °C 14.8 °C 1012.4 hPa West 1.6 km/h 4.8 km/h 85% 0 mm 0 W/m2
01:50 17.2 °C 14.8 °C 1012.8 hPa WNW 4.8 km/h 8 km/h 86% 0 mm 0 W/m2
02:00 17.1 °C 14.6 °C 1012.8 hPa NW 1.6 km/h 6.4 km/h 85% 0 mm 0 W/m2
02:10 17 °C 14.7 °C 1012.4 hPa Calm   4.8 km/h 86% 0 mm 0 W/m2
02:20 16.8 °C 14.4 °C 1012.4 hPa WSW 1.6 km/h 3.2 km/h 86% 0 mm 0 W/m2
02:30 16.6 °C 14.2 °C 1012.4 hPa WSW 1.6 km/h 4.8 km/h 86% 0 mm 0 W/m2
02:40 16.4 °C 14.4 °C 1012.4 hPa West 8 km/h 9.7 km/h 88% 0 mm 0 W/m2
02:50 16.4 °C 14.4 °C 1012.1 hPa West 3.2 km/h 6.4 km/h 88% 0 mm 0 W/m2
03:00 16.4 °C 14.4 °C 1012.1 hPa Calm   3.2 km/h 88% 0 mm 0 W/m2
03:10 16.2 °C 14.4 °C 1012.1 hPa West 3.2 km/h 4.8 km/h 89% 0 mm 0 W/m2
03:20 16.2 °C 14.4 °C 1011.7 hPa WNW 1.6 km/h 4.8 km/h 89% 0 mm 0 W/m2
03:30 16.2 °C 14.4 °C 1011.7 hPa NE 8 km/h 8 km/h 89% 0 mm 0 W/m2
03:40 16.1 °C 14.3 °C 1011.7 hPa NE 4.8 km/h 9.7 km/h 89% 0 mm 0 W/m2
03:50 16 °C 14 °C 1012.1 hPa NNE 4.8 km/h 9.7 km/h 88% 0 mm 0 W/m2
04:00 15.9 °C 13.9 °C 1012.1 hPa Calm   6.4 km/h 88% 0 mm 0 W/m2
04:10 15.8 °C 13.8 °C 1012.1 hPa NW 1.6 km/h 3.2 km/h 88% 0 mm 0 W/m2
04:20 15.6 °C 13.8 °C 1012.1 hPa NNW 3.2 km/h 4.8 km/h 89% 0 mm 0 W/m2
04:30 15.5 °C 13.7 °C 1012.1 hPa NNE 4.8 km/h 8 km/h 89% 0 mm 0 W/m2
04:40 15.5 °C 13.7 °C 1012.1 hPa NNW 1.6 km/h 6.4 km/h 89% 0 mm 0 W/m2
04:50 15.2 °C 13.4 °C 1012.1 hPa WNW 1.6 km/h 9.7 km/h 89% 0 mm 0 W/m2
05:00 15.1 °C 13.4 °C 1012.1 hPa West 1.6 km/h 4.8 km/h 90% 0 mm 0 W/m2
05:10 14.9 °C 13.3 °C 1012.1 hPa WNW 3.2 km/h 8 km/h 90% 0 mm 0 W/m2
05:20 15 °C 13.6 °C 1012.1 hPa North 3.2 km/h 4.8 km/h 91% 0 mm 0 W/m2
05:30 15 °C 13.4 °C 1012.1 hPa Calm   4.8 km/h 90% 0 mm 3 W/m2
05:40 15 °C 13.6 °C 1012.1 hPa NE 9.7 km/h 11.3 km/h 91% 0 mm 8 W/m2
05:50 14.9 °C 13.5 °C 1012.1 hPa NE 1.6 km/h 9.7 km/h 91% 0 mm 18 W/m2
06:00 14.8 °C 13.2 °C 1012.1 hPa WSW 1.6 km/h 3.2 km/h 90% 0 mm 31 W/m2
06:10 14.8 °C 13.3 °C 1012.4 hPa Calm   4.8 km/h 91% 0 mm 33 W/m2
06:20 14.8 °C 13.3 °C 1012.1 hPa WNW 3.2 km/h 4.8 km/h 91% 0 mm 39 W/m2
06:30 14.9 °C 13.5 °C 1012.4 hPa Calm   3.2 km/h 91% 0 mm 46 W/m2
06:40 15.1 °C 13.7 °C 1012.4 hPa Calm   3.2 km/h 91% 0 mm 62 W/m2
06:50 15.2 °C 13.7 °C 1012.4 hPa ESE 1.6 km/h 6.4 km/h 91% 0 mm 83 W/m2
07:00 15.3 °C 13.9 °C 1012.4 hPa East 3.2 km/h 9.7 km/h 91% 0 mm 88 W/m2
07:10 15.5 °C 13.9 °C 1012.4 hPa NE 4.8 km/h 9.7 km/h 90% 0 mm 95 W/m2
07:20 15.7 °C 14.1 °C 1012.8 hPa West 3.2 km/h 8 km/h 90% 0 mm 109 W/m2
07:30 15.9 °C 14.3 °C 1012.8 hPa NW 1.6 km/h 4.8 km/h 90% 0 mm 126 W/m2
Knjazevac, Serbia
Compliments of Weather Underground - 2 mb